Upstream stations:
Downstream station:
SHEF ID: BRIO2 Canadian River at Bridgeport, OK
STATION TYPE:
Regulating: Stage = 15.00, Flow = 8545
STAGE RIV-FLOW
ft cfs
Ccp-Rev Ccp-Rev
(US/Central)
05/19 00:00 12.60 2190
05/19 01:00 12.59 2176
05/19 02:00 12.58 2161
05/19 03:00 12.57 2146
05/19 04:00 12.55 2117
05/19 05:00 12.54 2103
05/19 06:00 12.53 2089
05/19 07:00 13.13 3073
05/19 08:00 13.16 3130
05/19 09:00 13.10 3018
05/19 10:00 12.97 2785
05/19 11:00 12.93 2716
05/19 12:00 12.90 2665
05/19 13:00 12.88 2631
05/19 14:00 12.85 2581
05/19 15:00 12.84 2565
05/19 16:00 12.83 2548
05/19 17:00 12.83 2548
05/19 18:00 12.82 2532
05/19 19:00 12.77 2451
05/19 20:00 12.67 2295
05/19 21:00 12.63 2235
05/19 22:00 9.69 83
05/19 23:00 ---- ----